createdAt,value
2018-12-26T00:02:11.206Z,1.04
2018-12-26T00:04:40.434Z,0.85
2018-12-26T00:07:09.407Z,0.83
2018-12-26T00:09:36.303Z,0.70
2018-12-26T00:12:03.281Z,0.75
2018-12-26T00:14:30.494Z,0.66
2018-12-26T00:16:57.232Z,0.29
2018-12-26T00:19:24.036Z,0.36
2018-12-26T00:21:50.753Z,0.50
2018-12-26T00:24:17.729Z,0.67
2018-12-26T00:26:46.390Z,0.62
2018-12-26T00:29:14.989Z,0.44
2018-12-26T00:31:41.695Z,0.17
2018-12-26T00:34:09.071Z,-0.17
2018-12-26T00:36:35.813Z,0.03
2018-12-26T00:39:04.680Z,-0.56
2018-12-26T00:41:31.418Z,-0.03
2018-12-26T00:43:58.154Z,-0.04
2018-12-26T00:46:25.608Z,0.09
2018-12-26T00:48:52.327Z,0.11
2018-12-26T00:51:19.048Z,0.02
2018-12-26T00:53:45.765Z,0.06
2018-12-26T00:56:14.267Z,0.18
2018-12-26T00:58:41.008Z,0.28
2018-12-26T01:01:08.184Z,0.36
2018-12-26T01:03:34.964Z,0.26
2018-12-26T01:06:03.244Z,0.19
2018-12-26T01:08:30.155Z,0.35
2018-12-26T01:10:56.888Z,0.25
2018-12-26T01:13:23.782Z,0.20
2018-12-26T01:15:50.549Z,0.17
2018-12-26T01:18:17.262Z,0.08
2018-12-26T01:20:43.980Z,0.10
2018-12-26T01:23:10.721Z,0.11
2018-12-26T01:25:40.727Z,0.08
2018-12-26T01:28:07.437Z,0.04
2018-12-26T01:30:35.030Z,0.06
2018-12-26T01:33:01.997Z,-0.20
2018-12-26T01:35:28.902Z,-0.31
2018-12-26T01:37:55.601Z,-0.15
2018-12-26T01:40:24.439Z,-0.19
2018-12-26T01:42:51.181Z,-0.48
2018-12-26T01:45:17.871Z,-0.42
2018-12-26T01:47:44.562Z,-0.35
2018-12-26T01:50:11.275Z,-0.39
2018-12-26T01:52:38.034Z,-0.37
2018-12-26T01:55:04.716Z,-0.39
2018-12-26T01:57:37.759Z,-0.40
2018-12-26T02:00:05.120Z,-0.43
2018-12-26T02:02:34.659Z,-0.38
2018-12-26T02:05:03.962Z,-0.27
2018-12-26T02:07:31.276Z,-0.17
2018-12-26T02:09:58.017Z,-0.22
2018-12-26T02:12:24.727Z,-0.36
2018-12-26T02:14:51.431Z,-0.30
2018-12-26T02:17:18.172Z,-0.29
2018-12-26T02:19:44.935Z,-0.40
2018-12-26T02:22:11.758Z,-0.41
2018-12-26T02:24:38.461Z,-0.30
2018-12-26T02:27:05.166Z,-0.38
2018-12-26T02:29:31.919Z,-0.30
2018-12-26T02:31:58.645Z,-0.29
2018-12-26T02:34:25.364Z,-0.38
2018-12-26T02:36:52.286Z,-0.53
2018-12-26T02:39:18.996Z,-0.52
2018-12-26T02:41:45.708Z,-0.54
2018-12-26T02:44:12.405Z,-0.41
2018-12-26T02:46:39.133Z,-0.28
2018-12-26T02:49:07.107Z,-0.39
2018-12-26T02:51:33.822Z,-0.44
2018-12-26T02:54:00.546Z,-0.36
2018-12-26T02:56:27.276Z,-0.36
2018-12-26T02:58:54.031Z,-0.73
2018-12-26T03:01:20.709Z,-1.04
2018-12-26T03:03:47.416Z,-1.14
2018-12-26T03:06:14.143Z,-1.03
2018-12-26T03:08:40.834Z,-1.00
2018-12-26T03:11:07.604Z,-1.00
2018-12-26T03:13:34.292Z,-0.95
2018-12-26T03:16:01.003Z,-0.93
2018-12-26T03:18:27.799Z,-0.88
2018-12-26T03:20:54.527Z,-0.87
2018-12-26T03:23:21.232Z,-0.90
2018-12-26T03:25:47.949Z,-0.95
2018-12-26T03:28:14.654Z,-0.80
2018-12-26T03:30:41.362Z,-0.73
2018-12-26T03:33:08.399Z,-0.73
2018-12-26T03:35:35.139Z,-0.82
2018-12-26T03:38:01.886Z,-0.84
2018-12-26T03:40:28.936Z,-0.84
2018-12-26T03:42:55.664Z,-0.86
2018-12-26T03:45:22.358Z,-0.95
2018-12-26T03:47:49.351Z,-1.00
2018-12-26T03:50:16.051Z,-1.02
2018-12-26T03:52:42.733Z,-1.13
2018-12-26T03:55:09.414Z,-1.04
2018-12-26T03:57:36.114Z,-0.98
2018-12-26T04:00:03.358Z,-1.03
2018-12-26T04:02:30.062Z,-1.02
2018-12-26T04:04:56.767Z,-1.02
2018-12-26T04:07:23.474Z,-1.35
2018-12-26T04:09:50.190Z,-1.45
2018-12-26T04:12:16.997Z,-1.41
2018-12-26T04:14:43.710Z,-1.35
2018-12-26T04:17:10.453Z,-1.27
2018-12-26T04:19:37.205Z,-1.07
2018-12-26T04:22:03.874Z,-1.00
2018-12-26T04:24:30.581Z,-1.25
2018-12-26T04:26:57.617Z,-1.26
2018-12-26T04:29:24.315Z,-1.51
2018-12-26T04:31:51.013Z,-1.49
2018-12-26T04:34:17.691Z,-1.43
2018-12-26T04:36:44.413Z,-1.40
2018-12-26T04:39:11.130Z,-1.48
2018-12-26T04:41:37.800Z,-1.37
2018-12-26T04:44:04.569Z,-1.42
2018-12-26T04:46:31.250Z,-1.46
2018-12-26T04:48:57.955Z,-1.43
2018-12-26T04:51:24.638Z,-1.38
2018-12-26T04:53:51.404Z,-1.28
2018-12-26T04:56:18.108Z,-1.40
2018-12-26T04:58:44.813Z,-1.42
2018-12-26T05:01:11.511Z,-1.48
2018-12-26T05:03:38.225Z,-1.47
2018-12-26T05:06:04.942Z,-1.44
2018-12-26T05:08:31.607Z,-1.39
2018-12-26T05:10:58.308Z,-1.36
2018-12-26T05:13:25.014Z,-1.36
2018-12-26T05:15:51.728Z,-1.48
2018-12-26T05:18:18.449Z,-1.47
2018-12-26T05:20:47.972Z,-1.41
2018-12-26T05:23:14.684Z,-1.52
2018-12-26T05:25:41.355Z,-1.58
2018-12-26T05:28:08.080Z,-1.63
2018-12-26T05:30:34.835Z,-1.65
2018-12-26T05:33:05.657Z,-1.68
2018-12-26T05:35:32.338Z,-1.58
2018-12-26T05:37:59.029Z,-1.61
2018-12-26T05:40:25.833Z,-1.53
2018-12-26T05:42:52.523Z,-1.68
2018-12-26T05:45:19.212Z,-1.60
2018-12-26T05:47:45.967Z,-1.70
2018-12-26T05:50:13.334Z,-1.95
2018-12-26T05:52:40.482Z,-1.77
2018-12-26T05:55:07.226Z,-1.68
2018-12-26T05:57:42.586Z,-1.78
2018-12-26T06:00:02.886Z,-1.84
2018-12-26T06:02:29.611Z,-1.80
2018-12-26T06:04:56.316Z,-2.02
2018-12-26T06:07:23.023Z,-1.93
2018-12-26T06:09:49.751Z,-1.85
2018-12-26T06:12:17.925Z,-1.80
2018-12-26T06:14:44.612Z,-1.81
2018-12-26T06:17:11.315Z,-2.03
2018-12-26T06:19:38.138Z,-2.09
2018-12-26T06:22:04.847Z,-2.03
2018-12-26T06:24:31.577Z,-2.18
2018-12-26T06:26:58.278Z,-2.10
2018-12-26T06:29:25.269Z,-1.93
2018-12-26T06:31:51.980Z,-1.91
2018-12-26T06:34:18.659Z,-1.84
2018-12-26T06:36:45.369Z,-1.77
2018-12-26T06:39:12.096Z,-1.96
2018-12-26T06:41:38.954Z,-1.92
2018-12-26T06:44:05.702Z,-1.86
2018-12-26T06:46:33.590Z,-2.08
2018-12-26T06:49:01.681Z,-2.23
2018-12-26T06:51:28.419Z,-3.44
2018-12-26T06:53:55.191Z,-2.01
2018-12-26T06:56:22.102Z,-2.10
2018-12-26T06:58:48.816Z,-2.06
2018-12-26T07:01:18.246Z,-2.03
2018-12-26T07:03:45.061Z,-1.96
2018-12-26T07:06:11.746Z,-1.82
2018-12-26T07:08:38.500Z,-1.72
2018-12-26T07:11:05.581Z,-1.67
2018-12-26T07:13:32.307Z,-1.63
2018-12-26T07:15:59.001Z,-1.67
2018-12-26T07:18:25.701Z,-1.70
2018-12-26T07:20:52.429Z,-1.65
2018-12-26T07:23:19.127Z,-1.76
2018-12-26T07:25:46.383Z,-1.71
2018-12-26T07:28:13.081Z,-1.74
2018-12-26T07:30:39.780Z,-1.85
2018-12-26T07:33:06.564Z,-1.81
2018-12-26T07:35:33.282Z,-1.76
2018-12-26T07:38:00.003Z,-1.81
2018-12-26T07:40:26.890Z,-1.81
2018-12-26T07:42:53.617Z,-1.83
2018-12-26T07:45:21.201Z,-1.64
2018-12-26T07:47:47.978Z,-1.48
2018-12-26T07:50:14.852Z,-1.42
2018-12-26T07:52:41.701Z,-1.37
2018-12-26T07:55:08.415Z,-1.87
2018-12-26T07:57:35.404Z,-2.16
2018-12-26T08:00:02.082Z,-1.97
2018-12-26T08:02:28.825Z,-1.80
2018-12-26T08:04:55.528Z,-1.74
2018-12-26T08:07:22.255Z,-1.75
2018-12-26T08:09:48.964Z,-1.75
2018-12-26T08:12:15.695Z,-1.72
2018-12-26T08:14:42.517Z,-1.86
2018-12-26T08:17:09.208Z,-2.18
2018-12-26T08:19:35.904Z,-2.15
2018-12-26T08:22:02.604Z,-2.02
2018-12-26T08:24:29.361Z,-1.86
2018-12-26T08:26:56.475Z,-1.74
2018-12-26T08:29:23.381Z,-1.76
2018-12-26T08:31:50.185Z,-1.82
2018-12-26T08:34:16.925Z,-1.70
2018-12-26T08:36:43.759Z,-1.58
2018-12-26T08:39:14.067Z,-1.61
2018-12-26T08:41:40.864Z,-1.55
2018-12-26T08:44:07.960Z,-1.48
2018-12-26T08:46:34.663Z,-1.45
2018-12-26T08:49:01.505Z,-1.28
2018-12-26T08:51:28.205Z,-1.34
2018-12-26T08:53:54.958Z,-1.47
2018-12-26T08:56:22.173Z,-1.69
2018-12-26T08:58:49.209Z,-1.90
2018-12-26T09:01:15.952Z,-2.01
2018-12-26T09:03:42.648Z,-2.05
2018-12-26T09:06:09.387Z,-2.01
2018-12-26T09:08:36.130Z,-1.74
2018-12-26T09:11:02.964Z,-1.70
2018-12-26T09:13:29.669Z,-1.77
2018-12-26T09:15:56.429Z,-1.40
2018-12-26T09:18:24.326Z,-1.04
2018-12-26T09:20:51.045Z,-1.06
2018-12-26T09:23:18.131Z,-1.02
2018-12-26T09:25:49.910Z,-0.81
2018-12-26T09:28:16.646Z,-0.49
2018-12-26T09:30:43.313Z,-0.41
2018-12-26T09:33:12.587Z,-0.43
2018-12-26T09:35:39.584Z,-0.24
2018-12-26T09:38:06.585Z,-0.12
2018-12-26T09:40:35.888Z,-0.11
2018-12-26T09:43:02.551Z,-0.12
2018-12-26T09:45:29.353Z,-0.44
2018-12-26T09:47:56.290Z,-0.51
2018-12-26T09:50:24.313Z,-0.54
2018-12-26T09:52:53.938Z,-0.41
2018-12-26T09:55:20.819Z,-0.61
2018-12-26T09:57:47.545Z,-0.77
2018-12-26T10:00:14.406Z,-0.82
2018-12-26T10:02:42.753Z,-0.93
2018-12-26T10:05:09.478Z,-0.80
2018-12-26T10:07:37.112Z,-0.77
2018-12-26T10:10:04.273Z,-0.69
2018-12-26T10:12:36.242Z,-0.24
2018-12-26T10:15:03.696Z,-0.01
2018-12-26T10:17:30.561Z,0.27
2018-12-26T10:19:57.293Z,0.59
2018-12-26T10:22:24.008Z,0.57
2018-12-26T10:24:50.724Z,0.62
2018-12-26T10:27:17.450Z,0.82
2018-12-26T10:29:44.172Z,1.23
2018-12-26T10:32:10.930Z,1.50
2018-12-26T10:34:37.641Z,1.46
2018-12-26T10:37:04.335Z,1.40
2018-12-26T10:39:31.326Z,1.45
2018-12-26T10:41:58.498Z,1.53
2018-12-26T10:44:25.409Z,1.57
2018-12-26T10:46:52.190Z,1.47
2018-12-26T10:49:18.982Z,1.38
2018-12-26T10:51:45.693Z,1.48
2018-12-26T10:54:12.726Z,1.66
2018-12-26T10:56:39.956Z,1.80
2018-12-26T10:59:10.310Z,1.71
2018-12-26T11:01:35.470Z,1.80
2018-12-26T11:04:02.336Z,1.94
2018-12-26T11:06:29.264Z,1.90
2018-12-26T11:08:56.031Z,1.74
2018-12-26T11:11:22.816Z,1.85
2018-12-26T11:13:49.799Z,1.95
2018-12-26T11:16:16.525Z,2.11
2018-12-26T11:18:43.615Z,2.17
2018-12-26T11:21:11.045Z,2.35
2018-12-26T11:23:38.933Z,2.40
2018-12-26T11:26:05.952Z,2.46
2018-12-26T11:28:32.789Z,2.47
2018-12-26T11:30:59.616Z,2.43
2018-12-26T11:33:26.308Z,2.45
2018-12-26T11:35:53.112Z,2.38
2018-12-26T11:38:19.815Z,2.65
2018-12-26T11:40:46.758Z,2.73
2018-12-26T11:43:13.458Z,2.76
2018-12-26T11:45:40.172Z,2.76
2018-12-26T11:48:06.945Z,2.74
2018-12-26T11:50:33.982Z,2.54
2018-12-26T11:53:06.588Z,2.67
2018-12-26T11:55:33.485Z,2.78
2018-12-26T11:58:01.884Z,2.70
2018-12-26T12:00:28.728Z,2.75
2018-12-26T12:02:55.480Z,2.88
2018-12-26T12:05:22.605Z,2.99
2018-12-26T12:07:52.166Z,3.05
2018-12-26T12:10:18.887Z,2.99
2018-12-26T12:12:45.646Z,3.08
2018-12-26T12:15:12.709Z,3.20
2018-12-26T12:17:39.586Z,3.32
2018-12-26T12:20:09.414Z,3.41
2018-12-26T12:22:36.338Z,3.50
2018-12-26T12:25:03.202Z,3.62
2018-12-26T12:27:29.914Z,3.50
2018-12-26T12:29:56.614Z,3.62
2018-12-26T12:32:23.812Z,3.80
2018-12-26T12:34:50.848Z,3.95
2018-12-26T12:37:17.906Z,4.06
2018-12-26T12:39:44.646Z,4.06
2018-12-26T12:42:11.682Z,4.13
2018-12-26T12:44:40.342Z,4.22
2018-12-26T12:47:07.444Z,4.27
2018-12-26T12:49:34.285Z,4.41
2018-12-26T12:52:01.072Z,4.54
2018-12-26T12:54:28.262Z,4.65
2018-12-26T12:56:55.310Z,4.82
2018-12-26T12:59:22.117Z,4.94
2018-12-26T13:01:48.877Z,4.97
2018-12-26T13:04:15.634Z,5.05
2018-12-26T13:06:42.445Z,5.00
2018-12-26T13:09:09.213Z,5.19
2018-12-26T13:11:35.967Z,5.37
2018-12-26T13:14:02.679Z,5.31
2018-12-26T13:16:29.475Z,5.36
2018-12-26T13:18:56.216Z,5.61
2018-12-26T13:21:23.079Z,5.51
2018-12-26T13:23:50.013Z,5.50
2018-12-26T13:26:16.858Z,5.62
2018-12-26T13:28:43.585Z,5.99
2018-12-26T13:31:10.311Z,5.99
2018-12-26T13:33:38.140Z,6.06
2018-12-26T13:36:07.907Z,5.05
2018-12-26T13:38:34.617Z,6.11
2018-12-26T13:41:01.683Z,5.74
2018-12-26T13:43:28.419Z,5.62
2018-12-26T13:45:55.156Z,5.56
2018-12-26T13:48:21.899Z,5.56
2018-12-26T13:50:50.411Z,5.47
2018-12-26T13:53:17.129Z,5.47
2018-12-26T13:55:44.209Z,5.43
2018-12-26T13:58:10.924Z,5.39
2018-12-26T14:00:37.760Z,5.39
2018-12-26T14:03:05.985Z,5.43
2018-12-26T14:05:34.593Z,5.38
2018-12-26T14:08:01.357Z,5.31
2018-12-26T14:10:30.104Z,5.12
2018-12-26T14:12:56.825Z,5.12
2018-12-26T14:15:24.839Z,5.09
2018-12-26T14:17:51.567Z,5.08
2018-12-26T14:20:18.315Z,5.08
2018-12-26T14:22:45.409Z,5.07
2018-12-26T14:25:12.502Z,5.05
2018-12-26T14:27:39.545Z,5.09
2018-12-26T14:30:11.354Z,5.02
2018-12-26T14:32:36.111Z,4.94
2018-12-26T14:35:03.253Z,4.85
2018-12-26T14:37:30.060Z,4.76
2018-12-26T14:39:57.559Z,4.68
2018-12-26T14:42:24.349Z,4.68
2018-12-26T14:44:51.147Z,4.67
2018-12-26T14:47:17.870Z,4.69
2018-12-26T14:49:44.572Z,4.70
2018-12-26T14:52:11.335Z,4.68
2018-12-26T14:54:38.076Z,4.77
2018-12-26T14:57:04.814Z,4.70
2018-12-26T14:59:31.558Z,4.72
2018-12-26T15:02:00.011Z,4.75
2018-12-26T15:04:27.098Z,4.75
2018-12-26T15:06:53.923Z,4.68
2018-12-26T15:09:20.763Z,4.63
2018-12-26T15:11:48.884Z,4.57
2018-12-26T15:14:15.701Z,4.54
2018-12-26T15:16:42.412Z,4.48
2018-12-26T15:19:17.183Z,4.47
2018-12-26T15:21:43.942Z,4.43
2018-12-26T15:24:10.803Z,4.40
2018-12-26T15:26:37.509Z,4.38
2018-12-26T15:29:07.393Z,4.39
2018-12-26T15:31:34.117Z,4.39
2018-12-26T15:34:00.862Z,4.39
2018-12-26T15:36:27.708Z,4.32
2018-12-26T15:38:54.763Z,4.28
2018-12-26T15:41:21.456Z,4.18
2018-12-26T15:43:48.701Z,4.17
2018-12-26T15:46:15.385Z,4.10
2018-12-26T15:48:42.508Z,4.02
2018-12-26T15:51:09.576Z,4.00
2018-12-26T15:53:39.201Z,4.00
2018-12-26T15:56:06.344Z,3.88
2018-12-26T15:58:33.259Z,3.90
2018-12-26T16:01:00.023Z,3.84
2018-12-26T16:03:26.753Z,3.77
2018-12-26T16:05:53.585Z,3.65
2018-12-26T16:08:23.521Z,3.54
2018-12-26T16:10:50.264Z,3.53
2018-12-26T16:13:17.113Z,3.63
2018-12-26T16:15:43.825Z,3.63
2018-12-26T16:18:10.546Z,3.35
2018-12-26T16:20:37.429Z,3.25
2018-12-26T16:23:04.119Z,3.23
2018-12-26T16:25:30.866Z,3.26
2018-12-26T16:27:57.582Z,3.21
2018-12-26T16:30:24.292Z,3.34
2018-12-26T16:32:51.036Z,3.39
2018-12-26T16:35:17.749Z,3.45
2018-12-26T16:37:46.912Z,3.49
2018-12-26T16:40:13.628Z,3.48
2018-12-26T16:42:40.351Z,3.46
2018-12-26T16:45:07.024Z,3.39
2018-12-26T16:47:33.819Z,3.32
2018-12-26T16:50:00.822Z,3.26
2018-12-26T16:52:27.607Z,3.29
2018-12-26T16:54:54.450Z,3.28
2018-12-26T16:57:21.159Z,3.25
2018-12-26T16:59:48.018Z,3.21
2018-12-26T17:02:14.970Z,3.18
2018-12-26T17:04:41.669Z,3.18
2018-12-26T17:07:08.403Z,3.15
2018-12-26T17:09:35.090Z,3.09
2018-12-26T17:12:01.873Z,3.04
2018-12-26T17:14:28.564Z,3.11
2018-12-26T17:16:55.241Z,3.13
2018-12-26T17:19:23.387Z,3.12
2018-12-26T17:21:51.619Z,3.19
2018-12-26T17:24:18.378Z,3.27
2018-12-26T17:26:45.564Z,3.25
2018-12-26T17:29:15.152Z,3.05
2018-12-26T17:31:44.939Z,2.93
2018-12-26T17:34:11.691Z,2.88
2018-12-26T17:36:39.081Z,2.83
2018-12-26T17:39:06.839Z,2.79
2018-12-26T17:41:33.962Z,2.82
2018-12-26T17:44:00.914Z,2.84
2018-12-26T17:46:27.916Z,2.86
2018-12-26T17:48:54.626Z,2.85
2018-12-26T17:51:22.567Z,2.83
2018-12-26T17:54:16.341Z,2.86
2018-12-26T17:57:25.681Z,2.78
2018-12-26T18:00:27.640Z,2.76
2018-12-26T18:02:56.958Z,2.71
2018-12-26T18:05:23.673Z,2.78
2018-12-26T18:07:50.782Z,2.79
2018-12-26T18:10:17.517Z,2.75
2018-12-26T18:12:44.212Z,2.67
2018-12-26T18:15:10.972Z,2.64
2018-12-26T18:17:37.745Z,2.60
2018-12-26T18:20:06.678Z,2.61
2018-12-26T18:22:36.868Z,2.67
2018-12-26T18:25:04.769Z,2.56
2018-12-26T18:27:31.887Z,2.51
2018-12-26T18:29:58.556Z,2.53
2018-12-26T18:32:25.258Z,2.47
2018-12-26T18:34:51.993Z,2.49
2018-12-26T18:37:18.708Z,2.45
2018-12-26T18:39:45.828Z,2.38
2018-12-26T18:42:14.297Z,2.35
2018-12-26T18:44:41.010Z,2.36
2018-12-26T18:47:07.913Z,2.46
2018-12-26T18:49:37.924Z,2.53
2018-12-26T18:52:04.633Z,2.47
2018-12-26T18:54:31.761Z,2.47
2018-12-26T18:56:58.501Z,2.43
2018-12-26T18:59:25.591Z,2.43
2018-12-26T19:01:55.584Z,2.41
2018-12-26T19:04:22.406Z,2.43
2018-12-26T19:06:49.380Z,2.45
2018-12-26T19:09:16.122Z,2.50
2018-12-26T19:11:45.130Z,2.40
2018-12-26T19:14:12.255Z,2.40
2018-12-26T19:16:39.119Z,2.38
2018-12-26T19:19:05.868Z,2.45
2018-12-26T19:21:32.574Z,2.49
2018-12-26T19:23:59.571Z,2.42
2018-12-26T19:26:26.276Z,2.34
2018-12-26T19:28:53.059Z,2.32
2018-12-26T19:31:19.976Z,2.29
2018-12-26T19:33:46.656Z,2.28
2018-12-26T19:36:13.402Z,2.20
2018-12-26T19:38:40.141Z,2.21
2018-12-26T19:41:07.134Z,2.14
2018-12-26T19:43:33.842Z,2.16
2018-12-26T19:46:01.039Z,2.19
2018-12-26T19:48:27.941Z,2.24
2018-12-26T19:50:54.661Z,2.20
2018-12-26T19:53:21.421Z,2.22
2018-12-26T19:55:48.116Z,2.08
2018-12-26T19:58:15.005Z,2.02
2018-12-26T20:00:41.741Z,1.97
2018-12-26T20:03:08.561Z,1.95
2018-12-26T20:05:35.327Z,1.93
2018-12-26T20:08:02.262Z,1.85
2018-12-26T20:10:28.985Z,1.83
2018-12-26T20:12:56.070Z,1.89
2018-12-26T20:15:23.148Z,0.60
2018-12-26T20:17:50.194Z,1.72
2018-12-26T20:20:17.004Z,1.68
2018-12-26T20:22:45.225Z,1.69
2018-12-26T20:25:12.007Z,1.49
2018-12-26T20:27:38.745Z,1.53
2018-12-26T20:30:07.611Z,1.64
2018-12-26T20:32:34.464Z,1.66
2018-12-26T20:35:01.195Z,1.58
2018-12-26T20:37:28.439Z,1.22
2018-12-26T20:39:55.245Z,1.23
2018-12-26T20:42:24.547Z,1.30
2018-12-26T20:44:51.490Z,1.27
2018-12-26T20:47:18.425Z,1.17
2018-12-26T20:49:45.695Z,1.28
2018-12-26T20:52:13.110Z,1.42
2018-12-26T20:54:40.209Z,1.53
2018-12-26T20:57:07.037Z,1.53
2018-12-26T20:59:35.667Z,1.52
2018-12-26T21:02:05.828Z,1.45
2018-12-26T21:04:31.811Z,1.44
2018-12-26T21:06:58.847Z,1.42
2018-12-26T21:09:25.658Z,1.41
2018-12-26T21:11:55.253Z,1.45
2018-12-26T21:14:22.029Z,1.52
2018-12-26T21:16:54.991Z,1.65
2018-12-26T21:19:17.627Z,1.67
2018-12-26T21:21:44.698Z,1.67
2018-12-26T21:24:11.699Z,1.74
2018-12-26T21:26:38.961Z,1.72
2018-12-26T21:29:05.697Z,1.66
2018-12-26T21:31:34.133Z,1.58
2018-12-26T21:34:00.979Z,1.53
2018-12-26T21:36:27.674Z,1.40
2018-12-26T21:38:54.387Z,1.40
2018-12-26T21:41:21.091Z,1.46
2018-12-26T21:43:47.852Z,1.48
2018-12-26T21:46:14.719Z,1.48
2018-12-26T21:48:41.509Z,1.39
2018-12-26T21:51:08.388Z,1.40
2018-12-26T21:53:41.719Z,1.42
2018-12-26T21:56:10.386Z,1.22
2018-12-26T21:58:37.148Z,1.28
2018-12-26T22:01:03.930Z,1.34
2018-12-26T22:03:30.893Z,1.34
2018-12-26T22:05:57.701Z,1.36
2018-12-26T22:08:24.682Z,1.41
2018-12-26T22:10:51.423Z,1.43
2018-12-26T22:13:20.072Z,1.49
2018-12-26T22:15:46.804Z,1.47
2018-12-26T22:18:17.557Z,1.42
2018-12-26T22:20:49.456Z,1.29
2018-12-26T22:23:16.328Z,1.30
2018-12-26T22:25:43.493Z,1.30
2018-12-26T22:28:14.750Z,1.32
2018-12-26T22:30:43.419Z,1.31
2018-12-26T22:33:11.571Z,1.24
2018-12-26T22:35:38.465Z,1.13
2018-12-26T22:38:05.379Z,1.07
2018-12-26T22:40:34.946Z,1.06
2018-12-26T22:43:04.228Z,1.12
2018-12-26T22:45:31.043Z,1.22
2018-12-26T22:47:57.797Z,1.14
2018-12-26T22:50:24.742Z,1.13
2018-12-26T22:52:51.590Z,1.10
2018-12-26T22:55:19.446Z,1.13
2018-12-26T22:57:46.096Z,1.09
2018-12-26T23:00:14.767Z,1.09
2018-12-26T23:02:41.649Z,1.12
2018-12-26T23:05:09.179Z,1.01
2018-12-26T23:07:35.945Z,0.81
2018-12-26T23:10:02.770Z,0.82
2018-12-26T23:12:29.688Z,0.79
2018-12-26T23:14:56.439Z,0.83
2018-12-26T23:17:23.240Z,0.69
2018-12-26T23:19:50.586Z,0.50
2018-12-26T23:22:17.720Z,0.40
2018-12-26T23:24:44.432Z,0.38
2018-12-26T23:27:11.337Z,0.30
2018-12-26T23:29:38.048Z,0.29
2018-12-26T23:32:04.928Z,0.26
2018-12-26T23:34:31.650Z,0.32
2018-12-26T23:36:58.367Z,0.42
2018-12-26T23:39:25.404Z,0.46
2018-12-26T23:41:52.419Z,0.57
2018-12-26T23:44:21.736Z,0.65
2018-12-26T23:46:48.431Z,0.80
2018-12-26T23:49:15.160Z,0.86
2018-12-26T23:51:41.972Z,0.83
2018-12-26T23:54:08.706Z,0.74
2018-12-26T23:56:35.441Z,0.67
2018-12-26T23:59:02.405Z,0.65
